Opal Express — V7KB8 — position and weather

sailwx.info

Track history (hours):
 
Tides and Currents Weather Stations Pressure Air Temp Water Temp Dewpoint Dewpoint Depression Visibility Wind Speed Wind Dir Waves Ship Positions

Opal Express

Last reported at 2016-Nov-16 01:34 UTC. Time now 2016-Dec-11 02:17 UTC.
Position N 35°20' E 139°43'.
Warning: this ship's position is 25 days out of date.

Length 179 m; draft 7.8 m.

Type: Tanker. MMSI: 538002500.

Date/timePositionNaut miles runAvg speedWind from/ knotsBaromVisibWave heightAir tempDewpointWater temp
2016-Nov-16 01:34N 35°20' E 139°43'7 0.1
2016-Nov-14 00:33N 35°26' E 139°47'7 6.4
2016-Nov-13 23:31N 35°25' E 139°39'0 0.1
2016-Nov-13 22:28N 35°25' E 139°39'0 0.0
2016-Nov-13 19:31N 35°25' E 139°39'0 0.0
2016-Nov-13 18:31N 35°25' E 139°39'0 0.0
2016-Nov-13 17:31N 35°25' E 139°39'0 0.0
2016-Nov-13 15:31N 35°25' E 139°39'0 0.0
2016-Nov-13 13:31N 35°25' E 139°39'0 0.0
2016-Nov-13 10:31N 35°25' E 139°39'0 0.0
2016-Nov-13 08:31N 35°25' E 139°39'0 0.0
2016-Nov-13 05:31N 35°25' E 139°39'3 1.6
2016-Nov-13 03:33N 35°25' E 139°42'0 0.1
2016-Nov-12 23:31N 35°25' E 139°42'0 0.0
2016-Nov-12 21:31N 35°25' E 139°42'0 0.0
2016-Nov-12 19:31N 35°25' E 139°42'0 0.1
2016-Nov-12 17:31N 35°25' E 139°42'0 0.0
2016-Nov-12 16:31N 35°25' E 139°42'0 0.0
2016-Nov-12 15:31N 35°25' E 139°42'0 0.1
2016-Nov-12 14:31N 35°25' E 139°42'0 0.1
2016-Nov-12 13:31N 35°25' E 139°42'0 0.1
2016-Nov-12 12:31N 35°25' E 139°42'0 0.1
2016-Nov-12 11:31N 35°25' E 139°42'0 0.0
2016-Nov-12 09:31N 35°25' E 139°42'0 0.0
2016-Nov-12 06:31N 35°25' E 139°42'17 5.8
2016-Nov-12 03:30N 35°08' E 139°47'  
Track history (hours):
 
Tides and Currents Weather Stations Pressure Air Temp Water Temp Dewpoint Dewpoint Depression Visibility Wind Speed Wind Dir Waves Ship Positions

Opal Express

Last reported at 2016-Nov-16 01:34 UTC. Time now 2016-Dec-11 02:17 UTC.
Position N 35°20' E 139°43'.
Warning: this ship's position is 25 days out of date.

Length 179 m; draft 7.8 m.

Type: Tanker. MMSI: 538002500.

Date/timePositionNaut miles runAvg speedWind from/ knotsBaromVisibWave heightAir tempDewpointWater temp
2016-Nov-16 01:34N 35°20' E 139°43'7 0.1
2016-Nov-14 00:33N 35°26' E 139°47'7 6.4
2016-Nov-13 23:31N 35°25' E 139°39'0 0.1
2016-Nov-13 22:28N 35°25' E 139°39'0 0.0
2016-Nov-13 19:31N 35°25' E 139°39'0 0.0
2016-Nov-13 18:31N 35°25' E 139°39'0 0.0
2016-Nov-13 17:31N 35°25' E 139°39'0 0.0
2016-Nov-13 15:31N 35°25' E 139°39'0 0.0
2016-Nov-13 13:31N 35°25' E 139°39'0 0.0
2016-Nov-13 10:31N 35°25' E 139°39'0 0.0
2016-Nov-13 08:31N 35°25' E 139°39'0 0.0
2016-Nov-13 05:31N 35°25' E 139°39'3 1.6
2016-Nov-13 03:33N 35°25' E 139°42'0 0.1
2016-Nov-12 23:31N 35°25' E 139°42'0 0.0
2016-Nov-12 21:31N 35°25' E 139°42'0 0.0
2016-Nov-12 19:31N 35°25' E 139°42'0 0.1
2016-Nov-12 17:31N 35°25' E 139°42'0 0.0
2016-Nov-12 16:31N 35°25' E 139°42'0 0.0
2016-Nov-12 15:31N 35°25' E 139°42'0 0.1
2016-Nov-12 14:31N 35°25' E 139°42'0 0.1
2016-Nov-12 13:31N 35°25' E 139°42'0 0.1
2016-Nov-12 12:31N 35°25' E 139°42'0 0.1
2016-Nov-12 11:31N 35°25' E 139°42'0 0.0
2016-Nov-12 09:31N 35°25' E 139°42'0 0.0
2016-Nov-12 06:31N 35°25' E 139°42'17 5.8
2016-Nov-12 03:30N 35°08' E 139°47'  

Dump ship's entire track history